Airfield :
LOGIN :

Register | Disclaimer

   EN    FR    IT 

 










Legend :    VFR   Marginal VFR   IFR   Intensive IFR   Very Intensive IFR
Visi :
Ceiling :
>= 8 km
>= 3000ft
5 to 8 km
1000 to 3000 ft
1500m to 5 km
500 to 1000 ft
800 to 1500m
200 to 500 ft
< 800m
< 200 ft
Symbols :   Thunderstorms  Fog  Heavy snow  Heavy precipitations  Wind > 20 kt
SIGMETs :     Misc.  Thunderstorms  Icing  Turbulence  Mountain Waves  Volcanic Ashes







- Airport Elevation : 12 ft
- IATA code : BCN


LEBL - Barcelone

CURRENT METAR :
  • 262330Z 09005KT 9999 FEW028 25/21 Q1010 NOSIG

EXPIRED METARs :
  • 262300Z VRB02KT 9999 FEW028 25/21 Q1010 NOSIG
  • 262230Z 21002KT 9999 FEW028 25/22 Q1010 NOSIG
  • 262200Z 22005KT 9999 FEW028 25/22 Q1010 NOSIG
  • 262130Z 21003KT 9999 FEW028 26/21 Q1010 NOSIG
  • 262100Z 21005KT 190V250 9999 FEW028 26/21 Q1010 NOSIG

TAF TAF LEBL
Valid from the 27 at 00:00 until the 28 at 00:00 UTC


262300Z 2700/2724 VRB04KT 9999 FEW030 TX29/2712Z TN23/2706Z
BECMG 2707/2709 12010KT
PROB30
TEMPO 2712/2718 FEW050CB
BECMG 2718/2720 VRB03KT
No reported NOTAMs for that airfield.



MET'MAP, your aeronautical weather chart ! - Copyright ORBIFLY December 2007 - Disclaimer

ORBIFLY MET'MAP TEAM :

Programming & Development : Alexandra Zaïnal
Concept & Development : Baudouin d'Aumeries
Co-Development & Prog : Marc-Olivier Méhu
Technical & hardware support : Manuel Goepfert

Contact : metmap@orbifly.com




SOURCES & CREDITS :

   NOAA